Williston Park, NY (11596)

8:51 AM EDT on September 02, 2015 (GMT -0400)
Mineola | | Change Station
CLOSE
Current Station
Personal Weather Station
Location: Mineola, NY
Elevation: 108 ft
Nearby Weather Stations
Active Advisory: Special Statement Active Notice: Record Report

Elev 108 ft 40.74 °N, 73.65 °W | Updated 1 minute ago

Partly Cloudy
Partly Cloudy
75.6 °F
Feels Like 75 °F
N
0.7
Wind Variable Wind from SW
Gusts 1.3 mph

Today
High -- | Low -- °F
--% Chance of Precip.
Yesterday
High -- | Low -- °F
Precip. -- in
6:22 AM 7:25 PM
Waning Gibbous, 80% visible
Pressure 30.05 in
Visibility 6.0 miles
Clouds Few 500 ft
Scattered Clouds 25000 ft
Heat Index 75 °F
Dew Point 72 °F
Humidity 90%
Rainfall 0.00 in
Snow Depth Not available.
UV 1 out of 12
Pollen 10.30 out of 12
Air Quality Not available.
Flu Activity Not available.
SPECI KJFK 021205Z 20006KT 6SM BR FEW005 SCT250 24/22 A3005 RMK AO2 $
Pressure 30.05 in
Visibility 6.0 miles
Clouds Few 500 ft
Scattered Clouds 25000 ft
Heat Index 75 °F
Dew Point 72 °F
Humidity 90%
Rainfall 0.00 in
Snow Depth Not available.
UV 1 out of 12
Pollen 10.30 out of 12
Air Quality Not available.
Flu Activity Not available.
SPECI KJFK 021205Z 20006KT 6SM BR FEW005 SCT250 24/22 A3005 RMK AO2 $

10-Day Weather Forecast

×

Almanac

Astronomy

Sep. 02, 2015 Rise Set
Actual Time
Civil Twilight
Nautical Twilight
Astronomical Twilight
Moon
Length of Visible Light
Length of Day
Tomorrow will be .
, % of the Moon is Illuminated

Today's Extremes

State Highs State Lows

Community

WunderPhotos

Upload Photos

1,851,738 photos uploaded!

WunderBlogs® & News

Nearby

Air Quality

  Air Quality AQ Index Pollutant
Not available.

Snow Depth

Station Depth Elevation

Earthquake Activity

City Distance Mag. Time & Date
Minimum magnitude displayed is 2.5.

Coastal Water Temperatures

Place Temperature

Stations

Nearby Weather Stations

Station Location Temp. Windchill Dew Point Humidity Wind Precip. Elev Updated Type
                   
Special Statement
Statement as of 7:55 AM EDT on September 02, 2015

... Patchy dense fog until 9 am...

Clear skies and calm winds will cause areas of fog until around 9 am.

A few patches of dense fog may briefly restrict visibility to 1/4
mile or less.

Motorists should exercise extra caution while driving through
early morning fog.


Maloit

755 am EDT Wed Sep 2 2015

... Patchy dense fog until 9 am...

Clear skies and calm winds will cause areas of fog until around 9 am.

A few patches of dense fog may briefly restrict visibility to 1/4
mile or less.

Motorists should exercise extra caution while driving through
early morning fog.


Maloit